Terminal Aerodrome Forecast
Issued by NWS

Home | Current Version | Previous Version | Text Only | Print | Product List | Glossary On
Versions: 1 2 3 4 5 6 7 8 9 10 11 12 13 14 15 16 17 18 19
000
FTUS44 KEWX 290310 AAB
TAFSSF
TAF AMD
KSSF 290310Z 2903/2924 13012KT P6SM FEW050
     FM290500 14012KT P6SM BKN012
     FM291800 17006KT P6SM OVC015
     FM292100 15007KT P6SM BKN050=

USA.gov is the U.S. government's official web portal to all federal, state and local government web resources and services.